Time;durP1;ratioP1;P1;durP2;ratioP2;P2;SDS_P1;SDS_P2;PMS_P1;PMS_P2;Temp;Humidity;BMP_temperature;BMP_pressure;BME280_temperature;BME280_humidity;BME280_pressure;Samples;Min_cycle;Max_cycle;Signal;HPM_P1;HPM_P2
2022/07/15 00:00:41;;;;;;;11.98;3.85;;;;;;;24.08;43.67;101160.59;5022934;28;20486;-47
2022/07/15 00:03:07;;;;;;;9.68;3.13;;;;;;;24.03;43.43;101164.19;5030473;28;20400;-47
2022/07/15 00:05:34;;;;;;;13.50;3.50;;;;;;;23.89;44.68;101158.59;5013593;28;20061;-47
2022/07/15 00:08:00;;;;;;;12.13;4.13;;;;;;;23.68;44.16;101173.53;5013757;28;20479;-46
2022/07/15 00:10:28;;;;;;;8.90;3.47;;;;;;;23.49;44.14;101164.38;5013394;28;20101;-49
2022/07/15 00:12:57;;;;;;;8.77;3.20;;;;;;;23.62;44.89;101164.56;5013803;28;20041;-47
2022/07/15 00:15:27;;;;;;;10.65;3.58;;;;;;;23.27;44.79;101165.63;5013287;28;20072;-49
2022/07/15 00:17:55;;;;;;;15.25;3.83;;;;;;;23.42;45.04;101179.16;5013889;28;20029;-48
2022/07/15 00:20:22;;;;;;;9.82;3.80;;;;;;;23.51;44.44;101159.44;5013414;28;20485;-49
2022/07/15 00:22:49;;;;;;;10.32;3.50;;;;;;;23.50;44.22;101158.63;5013532;28;20037;-47
2022/07/15 00:25:16;;;;;;;9.95;3.45;;;;;;;23.58;44.10;101162.66;5013353;28;20115;-49
2022/07/15 00:28:00;;;;;;;10.02;3.50;;;;;;;23.38;44.04;101153.53;5013100;28;20045;-51
2022/07/15 00:30:40;;;;;;;10.80;3.63;;;;;;;23.32;44.76;101153.81;5013279;28;20030;-50
2022/07/15 00:33:07;;;;;;;11.15;3.53;;;;;;;23.19;44.98;101156.09;5013251;28;20038;-48
2022/07/15 00:35:35;;;;;;;15.20;3.72;;;;;;;23.29;45.21;101155.22;5013301;28;20026;-47
2022/07/15 00:38:03;;;;;;;14.48;3.50;;;;;;;23.10;45.81;101163.25;5020971;28;20082;-46
2022/07/15 00:40:29;;;;;;;13.15;3.35;;;;;;;23.04;45.59;101172.59;5032764;28;20026;-48
2022/07/15 00:42:56;;;;;;;14.40;3.72;;;;;;;22.80;45.43;101164.19;5032827;28;20021;-50
2022/07/15 00:45:24;;;;;;;14.35;3.75;;;;;;;22.55;46.78;101167.03;5032693;28;20501;-50
2022/07/15 00:47:53;;;;;;;11.23;3.28;;;;;;;22.49;47.60;101157.25;5032850;28;20079;-48
2022/07/15 00:50:21;;;;;;;14.35;3.30;;;;;;;22.59;47.20;101154.44;5032364;28;20393;-47
2022/07/15 00:53:16;;;;;;;11.70;3.58;;;;;;;22.53;47.25;101145.47;5028731;23;20051;-51
2022/07/15 00:55:45;;;;;;;14.45;3.33;;;;;;;22.62;46.35;101153.91;5015458;28;20052;-47
2022/07/15 00:58:17;;;;;;;13.38;3.80;;;;;;;22.55;47.51;101153.41;5032593;28;20494;-46
2022/07/15 01:00:45;;;;;;;10.52;3.50;;;;;;;22.54;46.96;101149.00;5032431;28;20033;-50
2022/07/15 01:03:13;;;;;;;10.43;3.53;;;;;;;22.45;47.64;101142.50;5032334;28;20501;-49
2022/07/15 01:05:41;;;;;;;12.05;3.95;;;;;;;22.30;47.23;101141.47;5032211;28;20039;-49
2022/07/15 01:08:08;;;;;;;16.80;3.70;;;;;;;22.00;48.37;101136.88;5032446;28;20033;-46
2022/07/15 01:10:36;;;;;;;12.00;3.70;;;;;;;21.81;48.76;101141.22;5032145;28;20033;-49
2022/07/15 01:13:04;;;;;;;16.52;4.22;;;;;;;21.74;49.30;101146.97;5032302;28;20041;-49
2022/07/15 01:15:32;;;;;;;16.38;4.03;;;;;;;21.63;49.44;101148.06;5032389;28;20409;-50
2022/07/15 01:18:01;;;;;;;9.85;3.60;;;;;;;21.77;48.82;101151.06;5032103;28;20532;-47
2022/07/15 01:20:27;;;;;;;13.38;3.80;;;;;;;21.76;48.38;101133.88;5032154;28;20026;-50
2022/07/15 01:22:54;;;;;;;15.68;3.97;;;;;;;21.71;49.46;101139.34;5032123;28;20022;-49
2022/07/15 01:25:20;;;;;;;12.30;3.78;;;;;;;21.81;48.71;101131.16;5031383;28;20108;-46
2022/07/15 01:27:46;;;;;;;13.57;4.28;;;;;;;21.72;49.59;101130.09;5031271;28;20033;-49
2022/07/15 01:30:12;;;;;;;13.93;4.43;;;;;;;21.85;49.22;101140.41;5030619;28;20103;-49
2022/07/15 01:32:39;;;;;;;16.92;4.03;;;;;;;21.73;49.92;101126.25;5031987;28;20127;-50
2022/07/15 01:35:06;;;;;;;12.18;3.50;;;;;;;21.73;49.07;101128.19;5032063;28;20100;-46
2022/07/15 01:37:32;;;;;;;13.85;3.95;;;;;;;21.78;49.08;101129.00;5030022;28;20095;-47
2022/07/15 01:39:58;;;;;;;15.95;4.32;;;;;;;21.72;48.85;101126.53;5030873;28;20026;-49
2022/07/15 01:42:24;;;;;;;17.10;4.13;;;;;;;21.75;48.98;101129.53;5027706;28;20370;-44
2022/07/15 01:44:51;;;;;;;11.48;3.53;;;;;;;21.89;49.40;101124.34;5032020;28;20021;-49
2022/07/15 01:47:17;;;;;;;14.38;3.72;;;;;;;21.79;48.88;101127.88;5030144;28;20026;-46
2022/07/15 01:49:43;;;;;;;20.90;3.67;;;;;;;21.67;48.74;101121.91;5025126;28;20091;-42
2022/07/15 01:52:10;;;;;;;11.45;3.67;;;;;;;21.77;49.06;101130.09;5025470;28;20038;-43
2022/07/15 01:54:36;;;;;;;14.52;3.80;;;;;;;21.64;48.98;101127.06;5027181;28;20454;-46
2022/07/15 01:57:03;;;;;;;14.15;3.95;;;;;;;21.44;49.12;101117.00;5030750;28;20057;-44
2022/07/15 01:59:29;;;;;;;13.27;3.80;;;;;;;21.49;49.50;101122.47;5030246;28;20044;-44
2022/07/15 02:01:57;;;;;;;18.33;3.60;;;;;;;21.30;49.32;101131.16;5030071;28;20021;-42
2022/07/15 02:04:24;;;;;;;18.60;3.65;;;;;;;21.32;49.53;101137.16;5028677;28;20033;-50
2022/07/15 02:06:51;;;;;;;12.95;3.63;;;;;;;21.44;49.32;101134.16;5031153;28;20025;-48
2022/07/15 02:09:17;;;;;;;9.23;3.05;;;;;;;21.59;49.28;101130.63;5041282;28;20033;-47
2022/07/15 02:11:44;;;;;;;15.73;3.20;;;;;;;21.70;47.97;101136.88;5034831;28;20022;-43
2022/07/15 02:14:11;;;;;;;12.23;3.20;;;;;;;21.76;48.08;101133.88;5031360;28;20068;-42
2022/07/15 02:16:38;;;;;;;15.48;3.85;;;;;;;22.18;47.36;101127.31;5030283;28;20137;-44
2022/07/15 02:19:04;;;;;;;16.08;3.55;;;;;;;22.44;46.91;101127.25;5030328;28;20604;-46
2022/07/15 02:21:30;;;;;;;14.32;3.10;;;;;;;22.55;45.79;101126.13;5030411;28;20053;-43
2022/07/15 02:24:00;;;;;;;12.07;3.30;;;;;;;22.68;45.81;101125.50;5030909;28;20432;-45
2022/07/15 02:26:26;;;;;;;9.15;3.20;;;;;;;22.78;45.47;101125.47;5031899;28;20056;-48
2022/07/15 02:28:52;;;;;;;11.48;4.22;;;;;;;22.79;45.08;101116.16;5030773;28;20022;-44
2022/07/15 02:31:19;;;;;;;12.35;3.63;;;;;;;22.68;45.76;101130.97;5017902;28;20363;-44
2022/07/15 02:33:45;;;;;;;16.65;3.65;;;;;;;22.78;45.53;101128.19;5028773;28;20436;-43
2022/07/15 02:36:14;;;;;;;9.93;3.15;;;;;;;22.89;45.00;101126.25;5047113;28;20377;-47
2022/07/15 02:38:41;;;;;;;10.82;3.35;;;;;;;22.68;45.57;101139.16;5048231;28;20399;-45
2022/07/15 02:41:08;;;;;;;11.52;3.28;;;;;;;22.80;45.46;101136.91;5051196;28;20092;-46
2022/07/15 02:43:36;;;;;;;14.60;3.67;;;;;;;22.66;46.17;101136.69;5051262;28;20071;-44
2022/07/15 02:46:03;;;;;;;10.50;3.05;;;;;;;22.39;46.09;101128.91;5032377;28;20791;-46
2022/07/15 02:48:29;;;;;;;13.82;3.75;;;;;;;22.36;46.31;101129.44;5031455;28;20018;-44
2022/07/15 02:50:55;;;;;;;9.32;3.08;;;;;;;22.20;46.83;101141.47;5044787;22;20057;-47
2022/07/15 02:53:25;;;;;;;11.18;3.67;;;;;;;22.09;46.72;101134.38;5032341;28;20428;-46
2022/07/15 02:55:51;;;;;;;12.73;3.47;;;;;;;21.59;47.99;101139.59;5035101;28;20436;-44
2022/07/15 02:58:18;;;;;;;18.80;3.60;;;;;;;21.07;49.41;101150.69;5035009;28;20031;-44
2022/07/15 03:00:44;;;;;;;12.02;3.75;;;;;;;20.74;50.14;101147.31;5034795;28;20018;-44
2022/07/15 03:03:10;;;;;;;14.40;4.20;;;;;;;20.45;50.72;101148.78;5034606;28;20025;-44
2022/07/15 03:05:37;;;;;;;9.70;3.60;;;;;;;20.26;51.46;101151.09;5029671;28;20168;-43
2022/07/15 03:08:03;;;;;;;20.60;4.57;;;;;;;20.01;52.57;101154.50;5033182;28;20390;-43
2022/07/15 03:10:29;;;;;;;12.63;4.07;;;;;;;19.73;53.06;101156.47;5037597;28;20025;-47
2022/07/15 03:12:55;;;;;;;10.98;3.78;;;;;;;19.68;52.83;101147.44;5033601;28;20033;-46
2022/07/15 03:15:22;;;;;;;21.58;4.32;;;;;;;19.42;53.32;101147.19;5034831;28;20112;-47
2022/07/15 03:17:48;;;;;;;11.85;3.72;;;;;;;19.15;54.27;101144.47;5034338;28;20068;-45
2022/07/15 03:20:14;;;;;;;15.60;3.80;;;;;;;18.99;55.24;101148.94;5050307;28;20051;-48
2022/07/15 03:22:40;;;;;;;19.27;4.13;;;;;;;18.73;56.20;101145.09;5054544;28;20094;-45
2022/07/15 03:25:07;;;;;;;18.95;4.47;;;;;;;18.44;56.60;101139.00;5051851;28;20466;-44
2022/07/15 03:27:33;;;;;;;13.00;4.45;;;;;;;18.34;56.92;101132.63;5054783;28;20083;-45
2022/07/15 03:30:00;;;;;;;16.25;4.60;;;;;;;18.34;56.83;101143.47;5049826;28;20119;-42
2022/07/15 03:32:26;;;;;;;21.30;4.78;;;;;;;18.39;56.33;101147.06;5023665;28;20029;-41
2022/07/15 03:34:52;;;;;;;16.75;4.40;;;;;;;18.39;56.50;101143.56;5036787;28;20404;-42
2022/07/15 03:37:18;;;;;;;16.75;4.50;;;;;;;18.12;57.67;101152.38;5014577;28;20034;-43
2022/07/15 03:39:45;;;;;;;11.60;4.00;;;;;;;18.11;57.83;101158.88;5041631;28;20036;-44
2022/07/15 03:42:11;;;;;;;17.50;4.35;;;;;;;18.11;57.59;101163.47;5033460;28;20037;-45
2022/07/15 03:44:37;;;;;;;13.00;4.25;;;;;;;18.08;57.69;101159.34;5016035;28;20057;-46
2022/07/15 03:47:04;;;;;;;15.05;4.47;;;;;;;18.15;57.75;101159.19;5021023;28;20041;-44
2022/07/15 03:49:30;;;;;;;13.70;4.57;;;;;;;18.03;57.82;101161.97;5013388;28;20073;-44
2022/07/15 03:51:56;;;;;;;9.85;3.50;;;;;;;18.15;58.04;101157.28;5015474;28;20565;-46
2022/07/15 03:54:24;;;;;;;21.60;4.72;;;;;;;18.00;58.36;101154.38;5033668;28;20120;-45
2022/07/15 03:56:50;;;;;;;15.68;4.40;;;;;;;17.75;59.29;101171.03;5034013;28;20052;-42
2022/07/15 03:59:17;;;;;;;9.43;4.22;;;;;;;17.68;59.43;101167.63;5035960;28;20033;-43
2022/07/15 04:01:43;;;;;;;11.25;4.65;;;;;;;17.66;59.06;101167.88;5029492;28;20025;-42
2022/07/15 04:04:10;;;;;;;13.18;3.78;;;;;;;17.57;59.10;101173.94;5025764;28;20033;-41
2022/07/15 04:06:36;;;;;;;15.48;3.85;;;;;;;17.51;59.41;101172.22;5020965;28;20100;-46
2022/07/15 04:09:02;;;;;;;16.58;4.53;;;;;;;17.33;59.99;101187.59;5032883;28;20457;-48
2022/07/15 04:11:29;;;;;;;13.45;3.70;;;;;;;17.25;60.73;101184.44;5033034;28;20054;-48
2022/07/15 04:13:55;;;;;;;22.77;4.80;;;;;;;17.23;60.53;101179.28;5033800;28;20017;-44
2022/07/15 04:16:21;;;;;;;18.52;4.47;;;;;;;17.19;60.63;101177.28;5033592;28;20060;-44
2022/07/15 04:18:47;;;;;;;15.27;4.20;;;;;;;17.23;60.58;101200.09;5042211;28;20446;-44
2022/07/15 04:21:14;;;;;;;19.88;4.20;;;;;;;17.09;60.99;101194.97;5053127;28;20393;-44
2022/07/15 04:23:40;;;;;;;14.57;4.30;;;;;;;16.93;61.81;101189.47;5053376;28;20032;-48
2022/07/15 04:26:06;;;;;;;13.55;4.30;;;;;;;16.96;62.29;101200.66;5050245;28;20120;-46
2022/07/15 04:28:32;;;;;;;13.70;4.13;;;;;;;16.88;62.61;101195.63;5031575;28;20029;-47
2022/07/15 04:30:59;;;;;;;12.98;4.13;;;;;;;16.88;62.25;101198.34;5032943;28;20026;-45
2022/07/15 04:33:25;;;;;;;13.20;4.50;;;;;;;16.81;63.02;101200.34;5032955;28;20108;-46
2022/07/15 04:35:51;;;;;;;12.18;4.20;;;;;;;16.70;63.20;101201.97;5032721;28;20029;-47
2022/07/15 04:38:17;;;;;;;18.23;4.30;;;;;;;16.67;63.53;101207.88;5033096;28;20022;-44
2022/07/15 04:40:44;;;;;;;11.98;4.32;;;;;;;16.54;63.46;101211.63;5032856;28;20045;-43
2022/07/15 04:43:10;;;;;;;13.52;4.30;;;;;;;16.59;63.37;101211.72;5032869;28;20029;-44
2022/07/15 04:45:37;;;;;;;14.23;4.32;;;;;;;16.47;63.26;101202.81;5033348;28;20022;-44
2022/07/15 04:50:45;;;;;;;12.77;3.85;;;;;;;16.42;63.47;101205.41;5032755;28;20030;-46
2022/07/15 04:50:51;;;;;;;13.57;4.28;;;;;;;16.37;63.89;101208.81;5032443;28;20057;-44
2022/07/15 04:53:19;;;;;;;12.57;5.07;;;;;;;16.36;63.96;101212.56;5013259;28;20490;-47
2022/07/15 04:55:46;;;;;;;17.58;5.15;;;;;;;16.32;64.07;101214.13;5012863;28;20030;-44
2022/07/15 04:58:14;;;;;;;23.23;4.75;;;;;;;16.26;64.00;101216.91;5013043;28;20030;-46
2022/07/15 05:00:45;;;;;;;14.48;4.45;;;;;;;16.24;64.47;101224.44;5020403;28;20056;-46
2022/07/15 05:03:11;;;;;;;12.93;3.85;;;;;;;16.13;64.65;101231.47;5036343;28;20040;-47
2022/07/15 05:05:38;;;;;;;17.25;4.35;;;;;;;16.14;64.90;101229.59;5031155;28;20069;-48
2022/07/15 05:08:04;;;;;;;10.75;3.67;;;;;;;16.12;64.90;101226.31;5032574;28;20051;-45
2022/07/15 05:10:31;;;;;;;13.88;4.60;;;;;;;16.03;64.99;101226.63;5029132;28;20409;-45
2022/07/15 05:12:57;;;;;;;17.67;4.57;;;;;;;16.05;65.10;101229.94;5032392;28;20653;-48
2022/07/15 05:15:24;;;;;;;14.38;5.00;;;;;;;16.01;65.30;101234.16;5031343;28;20091;-47
2022/07/15 05:17:50;;;;;;;14.95;4.30;;;;;;;15.87;65.66;101237.28;5030951;28;20029;-47
2022/07/15 05:20:16;;;;;;;17.98;5.20;;;;;;;15.83;65.87;101237.78;5032033;28;20021;-46
2022/07/15 05:22:43;;;;;;;22.23;4.85;;;;;;;15.79;65.96;101238.44;5032317;28;20108;-45
2022/07/15 05:25:09;;;;;;;19.92;4.95;;;;;;;15.78;65.99;101243.03;5029199;28;20707;-43
2022/07/15 05:27:35;;;;;;;19.88;5.57;;;;;;;15.71;66.08;101239.63;5032417;28;20060;-45
2022/07/15 05:30:02;;;;;;;16.02;4.25;;;;;;;15.75;65.88;101242.66;5031031;28;20033;-45
2022/07/15 05:32:28;;;;;;;19.60;5.25;;;;;;;15.63;66.43;101250.72;5031979;28;20025;-45
2022/07/15 05:34:55;;;;;;;18.38;4.95;;;;;;;15.59;66.63;101258.41;5031160;28;20029;-45
2022/07/15 05:37:21;;;;;;;17.13;5.60;;;;;;;15.46;67.02;101261.31;5031957;28;20120;-46
2022/07/15 05:39:54;;;;;;;20.95;5.03;;;;;;;15.49;66.98;101250.06;5030994;28;20026;-46
2022/07/15 05:42:23;;;;;;;13.82;4.90;;;;;;;15.48;66.72;101261.88;5029832;28;20034;-48
2022/07/15 05:44:50;;;;;;;15.30;4.30;;;;;;;15.36;67.34;101263.72;5030578;28;20025;-44
2022/07/15 05:47:16;;;;;;;15.77;4.95;;;;;;;15.29;67.59;101261.09;5031929;28;20473;-47
2022/07/15 05:49:42;;;;;;;22.13;5.07;;;;;;;15.25;67.78;101269.88;5030959;28;20041;-44
2022/07/15 05:52:09;;;;;;;17.60;4.82;;;;;;;15.24;67.84;101271.75;5031765;28;20037;-47
2022/07/15 05:54:37;;;;;;;20.63;5.05;;;;;;;15.21;67.94;101274.06;5030051;28;20024;-46
2022/07/15 05:57:03;;;;;;;13.35;4.63;;;;;;;15.20;67.93;101270.53;5029610;28;20025;-44
2022/07/15 05:59:30;;;;;;;17.88;5.82;;;;;;;15.23;67.67;101258.50;5031441;28;20429;-46
2022/07/15 06:01:56;;;;;;;16.95;5.13;;;;;;;15.23;67.80;101258.50;5030665;28;20025;-47
2022/07/15 06:04:26;;;;;;;17.55;5.07;;;;;;;15.21;67.90;101260.56;5031924;28;20172;-45
2022/07/15 06:06:54;;;;;;;13.18;4.45;;;;;;;15.29;67.68;101265.69;5030630;28;20033;-46
2022/07/15 06:09:21;;;;;;;17.35;4.30;;;;;;;15.15;68.04;101266.88;5031848;28;20030;-44
2022/07/15 06:11:47;;;;;;;17.55;5.40;;;;;;;15.14;68.18;101273.31;5029484;28;20064;-44
2022/07/15 06:14:13;;;;;;;20.20;4.95;;;;;;;15.15;68.10;101264.19;5031938;28;20026;-46
2022/07/15 06:16:40;;;;;;;14.60;4.53;;;;;;;15.00;68.64;101270.78;5028470;28;20035;-46
2022/07/15 06:19:08;;;;;;;16.55;4.20;;;;;;;15.05;68.82;101265.56;5031651;28;20040;-45
2022/07/15 06:21:35;;;;;;;18.73;4.85;;;;;;;15.04;68.48;101276.53;5031544;28;20104;-44
2022/07/15 06:24:02;;;;;;;16.65;4.65;;;;;;;15.07;68.18;101278.81;5031661;28;20032;-44
2022/07/15 06:26:28;;;;;;;18.92;5.05;;;;;;;14.98;68.92;101274.75;5031459;28;20117;-45
2022/07/15 06:28:54;;;;;;;22.45;5.20;;;;;;;14.91;69.08;101277.53;5052098;28;20392;-44
2022/07/15 06:31:21;;;;;;;27.48;5.93;;;;;;;14.90;69.31;101267.78;5055657;28;20523;-43
2022/07/15 06:33:47;;;;;;;14.63;5.40;;;;;;;14.87;69.64;101267.41;5045398;28;20033;-47
2022/07/15 06:36:13;;;;;;;21.35;5.05;;;;;;;14.88;69.65;101269.91;5035211;28;20030;-47
2022/07/15 06:38:39;;;;;;;21.40;5.10;;;;;;;14.82;70.04;101264.56;5035520;28;20496;-45
2022/07/15 06:41:06;;;;;;;19.27;4.97;;;;;;;14.85;69.83;101270.34;5035145;28;20113;-45
2022/07/15 06:43:32;;;;;;;18.00;5.32;;;;;;;14.74;70.31;101263.81;5026588;28;20045;-46
2022/07/15 06:45:59;;;;;;;22.95;5.32;;;;;;;14.73;70.18;101266.72;5015542;28;20061;-43
2022/07/15 06:48:25;;;;;;;22.63;6.15;;;;;;;14.55;70.45;101270.22;5015632;28;20037;-44
2022/07/15 06:50:51;;;;;;;15.10;5.75;;;;;;;14.60;70.18;101262.28;5015117;28;20096;-46
2022/07/15 06:53:17;;;;;;;22.40;5.72;;;;;;;14.48;70.62;101266.75;5015434;28;20036;-43
2022/07/15 06:55:43;;;;;;;17.92;4.85;;;;;;;14.54;70.45;101273.94;5015355;28;20553;-47
2022/07/15 06:58:10;;;;;;;17.67;5.70;;;;;;;14.45;71.00;101269.88;5014885;28;20128;-47
2022/07/15 07:00:36;;;;;;;17.63;5.03;;;;;;;14.51;71.08;101274.41;5029898;28;20026;-44
2022/07/15 07:03:02;;;;;;;17.33;5.30;;;;;;;14.50;71.63;101268.19;5034891;28;20474;-44
2022/07/15 07:05:28;;;;;;;22.42;5.93;;;;;;;14.56;71.34;101266.47;5035018;28;20025;-46
2022/07/15 07:07:55;;;;;;;12.43;4.10;;;;;;;14.57;71.48;101270.00;5034935;28;20032;-43
2022/07/15 07:10:21;;;;;;;19.98;5.13;;;;;;;14.61;71.46;101265.81;5034373;28;20061;-44
2022/07/15 07:12:47;;;;;;;17.60;4.70;;;;;;;14.56;71.66;101277.25;5038708;28;20030;-47
2022/07/15 07:15:14;;;;;;;14.18;5.28;;;;;;;14.62;71.26;101276.38;5034825;28;20053;-47
2022/07/15 07:17:40;;;;;;;18.90;5.20;;;;;;;14.57;71.38;101276.22;5032406;28;20056;-44
2022/07/15 07:20:06;;;;;;;24.27;5.85;;;;;;;14.54;71.86;101273.94;5027190;28;20179;-46
2022/07/15 07:22:33;;;;;;;18.20;5.88;;;;;;;14.61;72.00;101276.59;5031443;28;20033;-45
2022/07/15 07:24:59;;;;;;;23.25;5.85;;;;;;;14.60;71.89;101283.00;5034026;28;20108;-44
2022/07/15 07:27:25;;;;;;;25.38;5.35;;;;;;;14.55;72.33;101280.16;5030596;28;20030;-45
2022/07/15 07:29:52;;;;;;;20.10;5.47;;;;;;;14.43;72.83;101277.34;5034430;28;20021;-45
2022/07/15 07:32:18;;;;;;;27.48;5.68;;;;;;;14.45;72.66;101267.19;5030637;28;20067;-47
2022/07/15 07:34:44;;;;;;;21.13;5.28;;;;;;;14.41;72.79;101274.03;5034619;28;20017;-43
2022/07/15 07:37:10;;;;;;;25.42;5.32;;;;;;;14.34;73.14;101268.72;5031788;28;20037;-44
2022/07/15 07:39:37;;;;;;;18.50;5.85;;;;;;;14.35;73.14;101264.97;5033341;28;20036;-46
2022/07/15 07:42:03;;;;;;;21.52;5.68;;;;;;;14.36;73.22;101276.56;5031984;28;20017;-46
2022/07/15 07:44:29;;;;;;;20.65;5.65;;;;;;;14.37;73.34;101267.44;5032650;28;20025;-46
2022/07/15 07:46:56;;;;;;;24.52;5.55;;;;;;;14.13;74.13;101263.72;5032826;28;20110;-44
2022/07/15 07:49:22;;;;;;;16.52;5.38;;;;;;;14.24;74.08;101263.81;5033948;28;20154;-45
2022/07/15 07:51:48;;;;;;;18.58;5.15;;;;;;;14.27;73.82;101278.72;5014449;28;20402;-46
2022/07/15 07:54:14;;;;;;;18.08;5.70;;;;;;;14.16;74.38;101276.75;5032357;28;20057;-45
2022/07/15 07:56:42;;;;;;;20.83;5.97;;;;;;;14.24;73.95;101279.97;5031934;28;20642;-46
2022/07/15 07:59:09;;;;;;;16.75;5.70;;;;;;;14.22;74.13;101273.19;5033678;28;20492;-46
2022/07/15 08:01:35;;;;;;;18.05;5.60;;;;;;;14.10;74.71;101283.84;5032083;28;20334;-46
2022/07/15 08:04:01;;;;;;;20.33;5.53;;;;;;;14.15;74.45;101275.06;5033732;28;20431;-46
2022/07/15 08:06:27;;;;;;;28.95;6.45;;;;;;;14.16;74.28;101280.25;5032978;28;20397;-43
2022/07/15 08:08:53;;;;;;;17.75;5.60;;;;;;;14.13;74.20;101280.69;5031531;28;20389;-47
2022/07/15 08:11:20;;;;;;;14.85;5.50;;;;;;;14.09;74.09;101271.38;5033471;28;20030;-42
2022/07/15 08:13:47;;;;;;;21.50;6.45;;;;;;;14.08;74.12;101288.59;5031966;28;20041;-45
2022/07/15 08:16:13;;;;;;;16.27;6.03;;;;;;;13.96;74.56;101283.09;5031237;28;20056;-48
2022/07/15 08:18:39;;;;;;;20.20;5.75;;;;;;;13.95;74.63;101286.00;5031944;28;20036;-43
2022/07/15 08:21:05;;;;;;;18.88;6.05;;;;;;;13.91;74.80;101277.53;5032090;28;20090;-43
2022/07/15 08:23:32;;;;;;;19.65;5.40;;;;;;;13.87;74.88;101275.47;5033420;28;20030;-43
2022/07/15 08:25:59;;;;;;;16.27;5.68;;;;;;;13.81;74.89;101273.66;5031383;28;20036;-46
2022/07/15 08:28:25;;;;;;;24.85;5.97;;;;;;;13.83;75.04;101277.81;5031068;28;20091;-46
2022/07/15 08:30:51;;;;;;;22.65;6.10;;;;;;;13.70;75.55;101270.63;5031074;28;20499;-47
2022/07/15 08:33:18;;;;;;;21.95;5.88;;;;;;;13.80;75.18;101272.84;5033215;28;20048;-47
2022/07/15 08:35:44;;;;;;;26.15;5.78;;;;;;;13.81;74.94;101279.88;5030814;28;20067;-45
2022/07/15 08:38:11;;;;;;;21.42;5.82;;;;;;;13.76;75.14;101285.06;5033011;28;20026;-43
2022/07/15 08:40:38;;;;;;;17.85;5.43;;;;;;;13.74;75.05;101285.28;5030738;28;20060;-44
2022/07/15 08:43:10;;;;;;;23.30;5.70;;;;;;;13.73;75.19;101288.22;5033065;28;20480;-43
2022/07/15 08:45:38;;;;;;;24.52;5.97;;;;;;;13.68;75.34;101285.34;5031313;28;20032;-43
2022/07/15 08:48:06;;;;;;;15.40;5.88;;;;;;;13.65;75.92;101283.06;5031446;28;20155;-44
2022/07/15 08:50:34;;;;;;;23.00;6.13;;;;;;;13.66;75.98;101290.13;5029894;28;20045;-43
2022/07/15 08:53:01;;;;;;;16.73;5.32;;;;;;;13.72;75.53;101278.50;5032472;28;20033;-43
2022/07/15 08:55:28;;;;;;;23.88;6.63;;;;;;;13.72;75.74;101283.88;5032292;28;20038;-43
2022/07/15 08:57:54;;;;;;;19.98;6.45;;;;;;;13.78;75.62;101274.94;5032854;28;20037;-47
2022/07/15 09:00:28;;;;;;;20.23;6.45;;;;;;;13.83;75.51;101282.38;5031109;28;20355;-44
2022/07/15 09:03:00;;;;;;;14.55;6.00;;;;;;;13.81;75.49;101279.03;5032611;28;20033;-44
2022/07/15 09:05:37;;;;;;;20.38;6.93;;;;;;;13.70;75.39;101275.19;5030347;28;20449;-47
2022/07/15 09:08:15;;;;;;;23.90;5.82;;;;;;;13.71;75.56;101266.06;5032112;28;20030;-43
2022/07/15 09:10:42;;;;;;;18.58;6.07;;;;;;;13.68;75.43;101266.50;5031628;28;20122;-42
2022/07/15 09:13:09;;;;;;;20.92;5.97;;;;;;;13.62;75.20;101264.69;5032532;28;20033;-46
2022/07/15 09:15:38;;;;;;;17.88;5.63;;;;;;;13.59;75.36;101274.00;5030734;28;20469;-44
2022/07/15 09:18:11;;;;;;;25.00;6.40;;;;;;;13.53;75.74;101268.66;5032588;28;20501;-45
2022/07/15 09:20:38;;;;;;;16.92;5.50;;;;;;;13.50;75.74;101277.16;5031048;28;20029;-48
2022/07/15 09:23:05;;;;;;;24.60;6.18;;;;;;;13.48;75.94;101270.13;5030568;28;20478;-45
2022/07/15 09:25:36;;;;;;;22.10;5.50;;;;;;;13.46;75.91;101279.44;5030744;28;20473;-46
2022/07/15 09:28:04;;;;;;;26.15;6.22;;;;;;;13.51;75.49;101281.50;5030329;28;20075;-45
2022/07/15 09:33:36;;;;;;;22.75;6.43;;;;;;;13.61;75.37;101282.69;5012917;28;20478;-43
2022/07/15 09:36:07;;;;;;;22.95;5.95;;;;;;;13.57;76.03;101283.31;5014478;28;20030;-43
2022/07/15 09:38:47;;;;;;;23.10;6.60;;;;;;;13.59;75.95;101286.63;5031465;28;20029;-45
2022/07/15 09:41:35;;;;;;;26.38;7.30;;;;;;;13.72;75.48;101283.88;5030195;28;20021;-48
2022/07/15 09:44:04;;;;;;;30.40;6.35;;;;;;;13.56;75.90;101282.50;5032070;28;20037;-45
2022/07/15 09:46:49;;;;;;;24.40;7.30;;;;;;;13.61;76.05;101289.94;5029819;28;20116;-47
2022/07/15 09:49:32;;;;;;;21.58;5.82;;;;;;;13.69;75.48;101286.97;5031737;28;20032;-48
2022/07/15 09:52:07;;;;;;;19.35;6.22;;;;;;;13.60;75.34;101291.81;5029456;28;20041;-47
2022/07/15 09:54:36;;;;;;;18.35;5.88;;;;;;;13.75;74.37;101286.13;5030333;28;20036;-44
2022/07/15 09:57:04;;;;;;;21.45;5.63;;;;;;;13.71;74.09;101291.13;5031903;28;20481;-46
2022/07/15 09:59:31;;;;;;;19.25;5.25;;;;;;;13.63;74.49;101290.53;5030536;28;20362;-44
2022/07/15 10:01:59;;;;;;;20.63;5.97;;;;;;;13.65;74.67;101297.34;5032295;28;20022;-44
2022/07/15 10:04:27;;;;;;;26.77;6.43;;;;;;;13.62;74.75;101294.28;5038464;28;20374;-44
2022/07/15 10:06:56;;;;;;;26.65;6.55;;;;;;;13.63;74.84;101290.53;5036687;28;20078;-46
2022/07/15 10:09:25;;;;;;;18.70;5.80;;;;;;;13.66;74.60;101284.75;5037126;28;20026;-44
2022/07/15 10:11:55;;;;;;;16.48;5.22;;;;;;;13.57;75.09;101297.59;5037216;28;20072;-47
2022/07/15 10:14:54;;;;;;;24.33;7.15;;;;;;;13.62;75.03;101305.03;5038123;28;20025;-44
2022/07/15 10:17:39;;;;;;;26.33;6.75;;;;;;;13.58;75.17;101301.94;5037368;28;20037;-44
2022/07/15 10:20:28;;;;;;;18.20;6.05;;;;;;;13.67;75.07;101305.22;5038059;28;20407;-44
2022/07/15 10:23:21;;;;;;;20.65;6.85;;;;;;;13.71;74.88;101306.41;4996615;28;20060;-45
2022/07/15 10:25:53;;;;;;;19.85;5.53;;;;;;;13.71;75.07;101301.03;5037151;28;20571;-46
2022/07/15 10:28:40;;;;;;;18.05;5.65;;;;;;;13.70;74.58;101305.59;5037468;28;20123;-46
2022/07/15 10:31:33;;;;;;;25.05;6.13;;;;;;;13.58;75.04;101303.81;5038037;28;20025;-44
2022/07/15 10:34:03;;;;;;;18.80;7.05;;;;;;;13.60;75.20;101302.56;5033179;28;20498;-46
2022/07/15 10:36:47;;;;;;;18.98;5.75;;;;;;;13.63;75.26;101299.44;5037641;28;20033;-44
2022/07/15 10:39:18;;;;;;;19.10;6.13;;;;;;;13.61;75.57;101296.13;5036840;28;20025;-44
2022/07/15 10:41:59;;;;;;;23.20;6.35;;;;;;;13.68;75.36;101306.84;5036849;28;20531;-44
2022/07/15 10:44:33;;;;;;;16.33;5.60;;;;;;;13.72;75.37;101303.53;5038043;28;20057;-43
2022/07/15 10:47:19;;;;;;;19.35;6.25;;;;;;;13.74;75.33;101309.50;5037157;28;20104;-43
2022/07/15 10:49:50;;;;;;;17.20;6.25;;;;;;;13.76;74.72;101295.84;5037830;28;20107;-43
2022/07/15 10:52:32;;;;;;;17.23;5.55;;;;;;;13.70;74.59;101296.69;5034784;28;20021;-44
2022/07/15 10:55:05;;;;;;;18.02;6.20;;;;;;;13.74;74.59;101300.63;5038183;28;20032;-43
2022/07/15 10:57:46;;;;;;;16.60;5.28;;;;;;;13.74;74.61;101290.69;5037146;28;20034;-44
2022/07/15 11:00:15;;;;;;;17.42;6.15;;;;;;;13.67;75.06;101306.03;5036563;28;20497;-43
2022/07/15 11:03:01;;;;;;;25.70;6.57;;;;;;;13.67;75.01;101297.97;5018170;28;20037;-45
2022/07/15 11:05:27;;;;;;;;;;;;;;;13.64;75.20;101306.44;5035044;28;20156;-47
2022/07/15 11:07:53;;;;;;;20.00;6.38;;;;;;;13.62;75.49;101311.22;5037904;28;20432;-46
2022/07/15 11:10:22;;;;;;;20.60;6.38;;;;;;;13.52;75.70;101301.97;5035456;28;20031;-44
2022/07/15 11:12:48;;;;;;;17.77;5.80;;;;;;;13.58;75.57;101311.88;5037965;28;20135;-47
2022/07/15 11:15:16;;;;;;;16.73;5.90;;;;;;;13.53;75.73;101306.31;5032325;28;20040;-47
2022/07/15 11:17:49;;;;;;;23.58;5.70;;;;;;;13.56;75.96;101303.19;5034570;28;20033;-43
2022/07/15 11:20:18;;;;;;;25.98;6.28;;;;;;;13.65;75.53;101308.09;5033694;28;20029;-44
2022/07/15 11:22:53;;;;;;;24.20;6.18;;;;;;;13.58;75.53;101311.88;5034570;28;20017;-44
2022/07/15 11:25:32;;;;;;;23.95;7.05;;;;;;;13.58;75.96;101318.06;5032402;28;20040;-44